createdAt,value
2018-05-07T00:01:05.707Z,101259.89
2018-05-07T00:02:12.107Z,101258.30
2018-05-07T00:03:18.435Z,101257.17
2018-05-07T00:04:24.656Z,101261.19
2018-05-07T00:05:30.943Z,101261.28
2018-05-07T00:06:37.150Z,101263.44
2018-05-07T00:07:43.386Z,101264.74
2018-05-07T00:08:49.366Z,101261.42
2018-05-07T00:09:55.675Z,101258.35
2018-05-07T00:11:01.904Z,101258.30
2018-05-07T00:12:07.933Z,101261.16
2018-05-07T00:13:14.408Z,101262.48
2018-05-07T00:14:21.131Z,101259.34
2018-05-07T00:15:27.330Z,101258.59
2018-05-07T00:16:34.457Z,101260.78
2018-05-07T00:17:40.703Z,101254.84
2018-05-07T00:18:47.007Z,101258.50
2018-05-07T00:19:53.279Z,101262.19
2018-05-07T00:20:59.537Z,101256.66
2018-05-07T00:22:05.813Z,101265.29
2018-05-07T00:23:12.064Z,101260.58
2018-05-07T00:24:18.361Z,101261.80
2018-05-07T00:25:24.548Z,101254.74
2018-05-07T00:26:30.933Z,101255.00
2018-05-07T00:27:37.055Z,101254.92
2018-05-07T00:28:43.291Z,101258.02
2018-05-07T00:29:49.515Z,101254.49
2018-05-07T00:30:55.985Z,101259.30
2018-05-07T00:32:02.232Z,101257.20
2018-05-07T00:33:09.453Z,101255.55
2018-05-07T00:34:17.346Z,101253.54
2018-05-07T00:35:28.229Z,101255.41
2018-05-07T00:36:37.903Z,101257.23
2018-05-07T00:37:44.137Z,101256.44
2018-05-07T00:38:50.638Z,101258.34
2018-05-07T00:39:56.850Z,101256.68
2018-05-07T00:41:03.053Z,101259.36
2018-05-07T00:42:09.260Z,101258.07
2018-05-07T00:43:15.471Z,101253.29
2018-05-07T00:44:21.722Z,101255.46
2018-05-07T00:45:27.986Z,101252.84
2018-05-07T00:46:34.310Z,101250.09
2018-05-07T00:47:40.507Z,101252.19
2018-05-07T00:48:47.879Z,101253.55
2018-05-07T00:49:54.065Z,101246.30
2018-05-07T00:51:00.272Z,101252.83
2018-05-07T00:52:06.506Z,101250.86
2018-05-07T00:53:12.795Z,101255.52
2018-05-07T00:54:19.095Z,101255.01
2018-05-07T00:55:25.303Z,101254.97
2018-05-07T00:56:31.526Z,101255.91
2018-05-07T00:57:37.768Z,101253.34
2018-05-07T00:58:44.060Z,101254.27
2018-05-07T00:59:50.246Z,101254.35
2018-05-07T01:00:56.458Z,101252.67
2018-05-07T01:02:01.423Z,101255.59
2018-05-07T01:03:07.808Z,101254.55
2018-05-07T01:04:14.714Z,101251.77
2018-05-07T01:05:21.670Z,101258.30
2018-05-07T01:06:28.423Z,101255.64
2018-05-07T01:07:34.635Z,101256.62
2018-05-07T01:08:40.550Z,101258.20
2018-05-07T01:09:46.845Z,101260.92
2018-05-07T01:10:53.031Z,101253.59
2018-05-07T01:11:59.249Z,101257.92
2018-05-07T01:13:05.439Z,101262.67
2018-05-07T01:14:11.675Z,101262.30
2018-05-07T01:15:17.895Z,101263.95
2018-05-07T01:16:24.219Z,101259.81
2018-05-07T01:17:30.394Z,101258.29
2018-05-07T01:18:36.657Z,101261.42
2018-05-07T01:19:42.983Z,101262.06
2018-05-07T01:20:49.251Z,101266.57
2018-05-07T01:22:02.303Z,101270.65
2018-05-07T01:23:08.548Z,101264.11
2018-05-07T01:24:14.735Z,101268.09
2018-05-07T01:25:20.945Z,101267.41
2018-05-07T01:26:26.923Z,101270.87
2018-05-07T01:27:33.178Z,101268.17
2018-05-07T01:28:39.401Z,101270.33
2018-05-07T01:29:45.463Z,101269.09
2018-05-07T01:30:51.375Z,101271.28
2018-05-07T01:31:58.083Z,101264.60
2018-05-07T01:33:04.331Z,101265.62
2018-05-07T01:34:10.340Z,101272.53
2018-05-07T01:35:16.623Z,101271.74
2018-05-07T01:36:24.081Z,101271.75
2018-05-07T01:37:30.263Z,101278.71
2018-05-07T01:38:36.595Z,101274.80
2018-05-07T01:39:42.782Z,101277.34
2018-05-07T01:40:49.927Z,101274.99
2018-05-07T01:41:57.038Z,101275.58
2018-05-07T01:43:03.952Z,101281.03
2018-05-07T01:44:11.668Z,101284.53
2018-05-07T01:45:18.042Z,101281.48
2018-05-07T01:46:23.663Z,101272.69
2018-05-07T01:47:29.947Z,101282.62
2018-05-07T01:48:36.192Z,101275.95
2018-05-07T01:49:42.495Z,101281.11
2018-05-07T01:50:48.781Z,101277.05
2018-05-07T01:51:54.995Z,101276.02
2018-05-07T01:53:02.162Z,101273.72
2018-05-07T01:54:09.383Z,101271.61
2018-05-07T01:55:16.578Z,101278.91
2018-05-07T01:56:22.783Z,101278.98
2018-05-07T01:57:29.115Z,101272.37
2018-05-07T01:58:36.156Z,101273.33
2018-05-07T01:59:43.073Z,101274.69
2018-05-07T02:00:49.268Z,101271.59
2018-05-07T02:01:55.459Z,101271.30
2018-05-07T02:03:02.676Z,101272.42
2018-05-07T02:04:09.791Z,101273.04
2018-05-07T02:05:16.054Z,101265.34
2018-05-07T02:06:22.875Z,101265.99
2018-05-07T02:07:30.131Z,101265.17
2018-05-07T02:08:36.434Z,101268.62
2018-05-07T02:09:42.623Z,101265.56
2018-05-07T02:10:49.045Z,101272.48
2018-05-07T02:11:55.709Z,101271.77
2018-05-07T02:13:01.892Z,101267.86
2018-05-07T02:14:07.967Z,101265.32
2018-05-07T02:15:15.214Z,101268.13
2018-05-07T02:16:21.469Z,101264.69
2018-05-07T02:17:27.715Z,101268.68
2018-05-07T02:18:35.561Z,101268.66
2018-05-07T02:19:41.795Z,101269.30
2018-05-07T02:20:51.577Z,101261.77
2018-05-07T02:21:57.790Z,101265.70
2018-05-07T02:23:04.009Z,101264.34
2018-05-07T02:24:10.235Z,101265.02
2018-05-07T02:25:16.423Z,101265.45
2018-05-07T02:26:22.734Z,101257.66
2018-05-07T02:27:29.579Z,101259.36
2018-05-07T02:28:36.401Z,101257.68
2018-05-07T02:29:42.618Z,101259.09
2018-05-07T02:30:48.880Z,101262.59
2018-05-07T02:31:55.105Z,101260.02
2018-05-07T02:33:01.799Z,101262.63
2018-05-07T02:34:08.149Z,101265.39
2018-05-07T02:35:15.347Z,101263.57
2018-05-07T02:36:21.487Z,101263.14
2018-05-07T02:37:27.696Z,101257.47
2018-05-07T02:38:33.815Z,101262.27
2018-05-07T02:39:40.146Z,101266.63
2018-05-07T02:40:48.516Z,101260.89
2018-05-07T02:41:56.440Z,101261.33
2018-05-07T02:43:03.392Z,101261.40
2018-05-07T02:44:10.497Z,101262.22
2018-05-07T02:45:17.409Z,101262.41
2018-05-07T02:46:23.607Z,101262.84
2018-05-07T02:47:30.004Z,101259.46
2018-05-07T02:48:36.255Z,101258.34
2018-05-07T02:49:42.562Z,101259.22
2018-05-07T02:50:48.779Z,101253.66
2018-05-07T02:51:55.055Z,101257.66
2018-05-07T02:53:01.299Z,101258.13
2018-05-07T02:54:07.518Z,101255.78
2018-05-07T02:55:13.770Z,101256.65
2018-05-07T02:56:19.668Z,101253.24
2018-05-07T02:57:25.911Z,101255.30
2018-05-07T02:58:32.589Z,101255.23
2018-05-07T02:59:38.727Z,101248.77
2018-05-07T03:00:45.068Z,101255.72
2018-05-07T03:01:51.371Z,101252.13
2018-05-07T03:02:58.154Z,101249.51
2018-05-07T03:04:04.937Z,101249.01
2018-05-07T03:05:11.215Z,101250.83
2018-05-07T03:06:17.438Z,101250.06
2018-05-07T03:07:24.250Z,101246.63
2018-05-07T03:08:30.463Z,101246.64
2018-05-07T03:09:36.001Z,101249.25
2018-05-07T03:10:42.359Z,101251.88
2018-05-07T03:11:48.575Z,101249.20
2018-05-07T03:12:54.439Z,101245.72
2018-05-07T03:14:00.715Z,101249.58
2018-05-07T03:15:07.009Z,101255.67
2018-05-07T03:16:13.223Z,101249.20
2018-05-07T03:17:19.269Z,101246.59
2018-05-07T03:18:25.541Z,101248.81
2018-05-07T03:19:31.840Z,101248.83
2018-05-07T03:20:37.742Z,101250.67
2018-05-07T03:21:43.963Z,101244.70
2018-05-07T03:22:52.229Z,101243.95
2018-05-07T03:24:01.491Z,101246.59
2018-05-07T03:25:07.490Z,101249.16
2018-05-07T03:26:13.446Z,101246.02
2018-05-07T03:27:19.703Z,101241.32
2018-05-07T03:28:25.627Z,101240.89
2018-05-07T03:29:31.895Z,101239.60
2018-05-07T03:30:39.065Z,101236.05
2018-05-07T03:31:45.255Z,101238.61
2018-05-07T03:32:52.083Z,101237.67
2018-05-07T03:33:59.336Z,101240.73
2018-05-07T03:35:06.542Z,101232.47
2018-05-07T03:36:12.411Z,101237.30
2018-05-07T03:37:18.661Z,101234.69
2018-05-07T03:38:24.857Z,101239.47
2018-05-07T03:39:31.622Z,101240.34
2018-05-07T03:40:37.814Z,101235.62
2018-05-07T03:41:44.026Z,101229.64
2018-05-07T03:42:50.326Z,101227.48
2018-05-07T03:44:01.237Z,101236.92
2018-05-07T03:45:10.841Z,101230.73
2018-05-07T03:46:16.454Z,101231.58
2018-05-07T03:47:22.714Z,101228.49
2018-05-07T03:48:29.430Z,101229.78
2018-05-07T03:49:35.670Z,101231.97
2018-05-07T03:50:42.023Z,101232.84
2018-05-07T03:51:48.316Z,101228.55
2018-05-07T03:52:56.216Z,101229.09
2018-05-07T03:54:03.304Z,101226.77
2018-05-07T03:55:10.126Z,101225.07
2018-05-07T03:56:16.280Z,101224.27
2018-05-07T03:57:22.625Z,101225.09
2018-05-07T03:58:28.830Z,101228.12
2018-05-07T03:59:35.052Z,101225.84
2018-05-07T04:00:41.588Z,101220.94
2018-05-07T04:01:47.862Z,101221.25
2018-05-07T04:02:54.173Z,101219.41
2018-05-07T04:04:00.383Z,101222.88
2018-05-07T04:05:06.741Z,101228.47
2018-05-07T04:06:13.462Z,101226.58
2018-05-07T04:07:19.095Z,101221.66
2018-05-07T04:08:24.772Z,101225.94
2018-05-07T04:09:31.053Z,101225.83
2018-05-07T04:10:37.368Z,101228.38
2018-05-07T04:11:43.638Z,101231.53
2018-05-07T04:12:49.630Z,101232.05
2018-05-07T04:13:55.881Z,101229.48
2018-05-07T04:15:02.243Z,101232.41
2018-05-07T04:16:08.480Z,101230.49
2018-05-07T04:19:04.208Z,101227.56
2018-05-07T04:20:21.525Z,101224.20
2018-05-07T04:21:27.018Z,101224.69
2018-05-07T04:22:44.072Z,101232.09
2018-05-07T04:24:01.647Z,101224.70
2018-05-07T04:25:07.811Z,101220.34
2018-05-07T04:26:15.074Z,101220.09
2018-05-07T04:27:21.222Z,101218.80
2018-05-07T04:28:28.178Z,101218.67
2018-05-07T04:29:34.487Z,101215.56
2018-05-07T04:30:40.566Z,101213.67
2018-05-07T04:31:46.894Z,101213.59
2018-05-07T04:32:53.842Z,101220.52
2018-05-07T04:33:59.841Z,101217.09
2018-05-07T04:35:06.120Z,101217.97
2018-05-07T04:36:12.118Z,101213.17
2018-05-07T04:37:19.012Z,101212.67
2018-05-07T04:38:25.958Z,101214.80
2018-05-07T04:39:32.186Z,101216.48
2018-05-07T04:40:38.419Z,101219.44
2018-05-07T04:41:44.695Z,101217.19
2018-05-07T04:42:50.925Z,101218.81
2018-05-07T04:43:57.446Z,101216.55
2018-05-07T04:45:03.688Z,101217.28
2018-05-07T04:46:09.978Z,101211.56
2018-05-07T04:47:16.372Z,101216.69
2018-05-07T04:48:22.682Z,101220.37
2018-05-07T04:49:28.908Z,101213.77
2018-05-07T04:50:35.215Z,101218.34
2018-05-07T04:51:41.462Z,101219.91
2018-05-07T04:52:47.927Z,101214.97
2018-05-07T04:53:54.282Z,101223.55
2018-05-07T04:55:00.625Z,101217.64
2018-05-07T04:56:06.725Z,101216.53
2018-05-07T04:57:12.710Z,101222.08
2018-05-07T04:58:18.966Z,101223.67
2018-05-07T04:59:24.888Z,101216.98
2018-05-07T05:00:31.115Z,101214.19
2018-05-07T05:01:37.186Z,101220.55
2018-05-07T05:02:43.494Z,101216.10
2018-05-07T05:03:52.047Z,101218.28
2018-05-07T05:04:58.239Z,101219.07
2018-05-07T05:06:04.505Z,101220.67
2018-05-07T05:07:10.760Z,101215.66
2018-05-07T05:08:17.078Z,101219.84
2018-05-07T05:09:27.177Z,101219.23
2018-05-07T05:10:33.367Z,101220.73
2018-05-07T05:11:39.345Z,101216.97
2018-05-07T05:12:45.534Z,101221.20
2018-05-07T05:13:51.599Z,101227.09
2018-05-07T05:14:57.850Z,101230.05
2018-05-07T05:16:04.075Z,101225.34
2018-05-07T05:17:10.043Z,101219.78
2018-05-07T05:18:16.244Z,101218.62
2018-05-07T05:19:22.479Z,101215.61
2018-05-07T05:20:28.682Z,101214.81
2018-05-07T05:21:34.955Z,101217.38
2018-05-07T05:22:41.697Z,101216.33
2018-05-07T05:23:47.963Z,101219.88
2018-05-07T05:24:54.300Z,101219.19
2018-05-07T05:26:00.599Z,101220.64
2018-05-07T05:27:07.584Z,101217.35
2018-05-07T05:28:13.798Z,101224.59
2018-05-07T05:29:21.142Z,101226.37
2018-05-07T05:30:27.369Z,101220.91
2018-05-07T05:31:33.585Z,101220.47
2018-05-07T05:32:40.374Z,101229.53
2018-05-07T05:33:46.583Z,101222.63
2018-05-07T05:34:52.589Z,101229.10
2018-05-07T05:35:58.775Z,101228.94
2018-05-07T05:37:04.904Z,101231.37
2018-05-07T05:38:11.143Z,101228.42
2018-05-07T05:39:17.434Z,101225.00
2018-05-07T05:40:23.751Z,101223.00
2018-05-07T05:41:30.090Z,101219.69
2018-05-07T05:42:36.368Z,101222.53
2018-05-07T05:43:42.653Z,101222.88
2018-05-07T05:44:49.514Z,101222.27
2018-05-07T05:45:55.980Z,101219.47
2018-05-07T05:47:02.224Z,101222.55
2018-05-07T05:48:08.442Z,101219.48
2018-05-07T05:49:14.660Z,101220.37
2018-05-07T05:50:20.923Z,101223.31
2018-05-07T05:51:28.161Z,101229.98
2018-05-07T05:52:34.426Z,101224.27
2018-05-07T05:53:40.736Z,101227.50
2018-05-07T05:54:46.803Z,101225.58
2018-05-07T05:55:53.131Z,101221.69
2018-05-07T05:56:59.394Z,101224.50
2018-05-07T05:58:05.671Z,101227.49
2018-05-07T05:59:11.995Z,101227.42
2018-05-07T06:00:18.274Z,101225.27
2018-05-07T06:01:24.492Z,101230.05
2018-05-07T06:02:30.831Z,101228.36
2018-05-07T06:03:37.309Z,101231.05
2018-05-07T06:04:43.542Z,101228.62
2018-05-07T06:05:49.701Z,101227.77
2018-05-07T06:06:55.667Z,101231.25
2018-05-07T06:08:02.054Z,101224.95
2018-05-07T06:09:08.264Z,101227.81
2018-05-07T06:10:14.355Z,101225.87
2018-05-07T06:11:23.388Z,101223.80
2018-05-07T06:12:34.868Z,101223.64
2018-05-07T06:13:41.963Z,101227.16
2018-05-07T06:14:49.276Z,101221.45
2018-05-07T06:15:55.564Z,101222.37
2018-05-07T06:17:02.149Z,101221.47
2018-05-07T06:18:08.369Z,101223.67
2018-05-07T06:19:14.707Z,101220.25
2018-05-07T06:20:21.006Z,101219.50
2018-05-07T06:21:27.202Z,101218.66
2018-05-07T06:22:33.463Z,101217.33
2018-05-07T06:23:39.952Z,101222.94
2018-05-07T06:24:46.248Z,101222.84
2018-05-07T06:25:52.466Z,101220.05
2018-05-07T06:26:58.791Z,101224.46
2018-05-07T06:28:04.745Z,101221.77
2018-05-07T06:29:10.958Z,101217.63
2018-05-07T06:30:17.205Z,101218.59
2018-05-07T06:31:23.501Z,101219.75
2018-05-07T06:32:29.756Z,101219.57
2018-05-07T06:33:36.017Z,101220.64
2018-05-07T06:34:42.331Z,101213.57
2018-05-07T06:35:48.310Z,101211.54
2018-05-07T06:36:55.543Z,101215.09
2018-05-07T06:38:01.715Z,101214.81
2018-05-07T06:39:07.993Z,101211.84
2018-05-07T06:40:14.283Z,101212.70
2018-05-07T06:41:20.517Z,101211.75
2018-05-07T06:42:27.155Z,101205.36
2018-05-07T06:43:34.286Z,101209.03
2018-05-07T06:44:40.569Z,101208.50
2018-05-07T06:45:46.821Z,101213.48
2018-05-07T06:46:53.357Z,101215.98
2018-05-07T06:47:59.723Z,101217.14
2018-05-07T06:49:06.026Z,101213.95
2018-05-07T06:50:12.231Z,101213.77
2018-05-07T06:51:18.549Z,101211.08
2018-05-07T06:52:25.520Z,101205.29
2018-05-07T06:53:32.318Z,101202.33
2018-05-07T06:54:38.553Z,101207.31
2018-05-07T06:55:44.842Z,101206.84
2018-05-07T06:56:51.122Z,101210.25
2018-05-07T06:57:57.448Z,101209.87
2018-05-07T06:59:03.259Z,101211.59
2018-05-07T07:00:08.799Z,101212.73
2018-05-07T07:01:15.050Z,101216.59
2018-05-07T07:02:21.320Z,101209.28
2018-05-07T07:03:27.770Z,101209.72
2018-05-07T07:04:33.981Z,101202.02
2018-05-07T07:05:40.216Z,101197.52
2018-05-07T07:06:46.383Z,101195.72
2018-05-07T07:07:53.305Z,101198.94
2018-05-07T07:08:59.535Z,101199.09
2018-05-07T07:10:05.757Z,101205.33
2018-05-07T07:11:11.948Z,101197.68
2018-05-07T07:12:19.083Z,101194.41
2018-05-07T07:13:25.320Z,101194.72
2018-05-07T07:14:35.970Z,101192.95
2018-05-07T07:15:42.194Z,101192.37
2018-05-07T07:16:48.411Z,101192.48
2018-05-07T07:17:54.682Z,101196.07
2018-05-07T07:19:01.594Z,101192.35
2018-05-07T07:20:07.875Z,101198.08
2018-05-07T07:21:14.100Z,101192.39
2018-05-07T07:22:20.430Z,101190.08
2018-05-07T07:23:26.743Z,101198.01
2018-05-07T07:24:33.051Z,101198.98
2018-05-07T07:25:39.331Z,101200.70
2018-05-07T07:26:45.571Z,101192.27
2018-05-07T07:27:51.958Z,101195.23
2018-05-07T07:28:58.522Z,101196.56
2018-05-07T07:30:04.129Z,101197.66
2018-05-07T07:31:10.382Z,101191.32
2018-05-07T07:32:16.697Z,101194.38
2018-05-07T07:33:22.939Z,101189.37
2018-05-07T07:34:29.199Z,101194.55
2018-05-07T07:35:35.416Z,101193.65
2018-05-07T07:36:41.735Z,101192.60
2018-05-07T07:37:47.967Z,101187.80
2018-05-07T07:38:54.167Z,101191.38
2018-05-07T07:40:00.536Z,101187.73
2018-05-07T07:41:06.884Z,101187.89
2018-05-07T07:42:13.094Z,101187.64
2018-05-07T07:43:19.345Z,101187.66
2018-05-07T07:44:26.621Z,101189.23
2018-05-07T07:45:33.151Z,101189.27
2018-05-07T07:46:39.490Z,101191.80
2018-05-07T07:47:45.709Z,101199.36
2018-05-07T07:48:51.975Z,101186.93
2018-05-07T07:49:57.931Z,101188.66
2018-05-07T07:51:04.315Z,101193.86
2018-05-07T07:52:10.594Z,101193.09
2018-05-07T07:53:27.126Z,101190.43
2018-05-07T07:54:33.494Z,101188.48
2018-05-07T07:55:39.664Z,101194.34
2018-05-07T07:56:46.666Z,101193.91
2018-05-07T07:57:52.948Z,101193.56
2018-05-07T07:58:59.226Z,101186.16
2018-05-07T08:00:05.440Z,101185.59
2018-05-07T08:01:11.632Z,101178.25
2018-05-07T08:02:17.861Z,101179.03
2018-05-07T08:03:24.084Z,101179.80
2018-05-07T08:04:30.286Z,101175.23
2018-05-07T08:05:36.496Z,101169.77
2018-05-07T08:06:42.699Z,101170.25
2018-05-07T08:07:48.677Z,101170.81
2018-05-07T08:08:55.039Z,101175.33
2018-05-07T08:10:01.201Z,101182.40
2018-05-07T08:11:07.811Z,101178.03
2018-05-07T08:12:14.090Z,101178.38
2018-05-07T08:13:20.475Z,101177.59
2018-05-07T08:14:26.684Z,101181.64
2018-05-07T08:15:33.420Z,101177.76
2018-05-07T08:16:42.037Z,101178.56
2018-05-07T08:17:49.295Z,101179.84
2018-05-07T08:18:56.298Z,101181.65
2018-05-07T08:20:02.523Z,101177.48
2018-05-07T08:21:08.847Z,101174.83
2018-05-07T08:22:15.054Z,101178.66
2018-05-07T08:23:21.262Z,101173.91
2018-05-07T08:24:27.487Z,101171.22
2018-05-07T08:25:33.770Z,101172.70
2018-05-07T08:26:40.014Z,101162.98
2018-05-07T08:27:46.190Z,101168.61
2018-05-07T08:28:52.447Z,101170.19
2018-05-07T08:29:58.732Z,101171.60
2018-05-07T08:31:05.524Z,101164.56
2018-05-07T08:32:11.705Z,101168.64
2018-05-07T08:33:17.972Z,101166.53
2018-05-07T08:34:24.320Z,101168.20
2018-05-07T08:35:30.593Z,101164.09
2018-05-07T08:36:36.918Z,101156.36
2018-05-07T08:37:44.185Z,101149.30
2018-05-07T08:38:50.522Z,101150.51
2018-05-07T08:39:57.591Z,101155.52
2018-05-07T08:41:03.797Z,101147.91
2018-05-07T08:42:09.815Z,101150.14
2018-05-07T08:43:16.113Z,101148.59
2018-05-07T08:44:22.466Z,101145.77
2018-05-07T08:45:28.757Z,101147.59
2018-05-07T08:46:35.938Z,101142.52
2018-05-07T08:47:42.362Z,101150.42
2018-05-07T08:48:48.736Z,101141.64
2018-05-07T08:49:55.020Z,101148.50
2018-05-07T08:51:01.239Z,101144.15
2018-05-07T08:52:07.729Z,101146.89
2018-05-07T08:53:14.032Z,101149.03
2018-05-07T08:54:20.485Z,101154.50
2018-05-07T08:55:26.880Z,101147.42
2018-05-07T08:56:33.099Z,101148.80
2018-05-07T08:57:39.423Z,101142.42
2018-05-07T08:58:45.371Z,101141.67
2018-05-07T08:59:52.614Z,101145.19
2018-05-07T09:00:58.885Z,101140.66
2018-05-07T09:02:05.670Z,101141.28
2018-05-07T09:03:12.050Z,101134.95
2018-05-07T09:04:19.281Z,101139.19
2018-05-07T09:05:25.517Z,101139.33
2018-05-07T09:06:31.737Z,101142.69
2018-05-07T09:07:37.942Z,101136.30
2018-05-07T09:08:44.134Z,101139.06
2018-05-07T09:09:50.381Z,101128.20
2018-05-07T09:10:57.335Z,101134.94
2018-05-07T09:12:03.359Z,101132.60
2018-05-07T09:13:09.608Z,101131.48
2018-05-07T09:14:15.844Z,101132.11
2018-05-07T09:15:22.123Z,101131.41
2018-05-07T09:16:28.435Z,101132.66
2018-05-07T09:17:35.444Z,101128.86
2018-05-07T09:18:41.686Z,101127.09
2018-05-07T09:19:48.024Z,101134.63
2018-05-07T09:20:55.491Z,101132.47
2018-05-07T09:22:01.745Z,101126.72
2018-05-07T09:23:08.672Z,101132.45
2018-05-07T09:24:14.887Z,101121.69
2018-05-07T09:25:21.167Z,101127.78
2018-05-07T09:26:27.415Z,101122.16
2018-05-07T09:27:33.638Z,101119.02
2018-05-07T09:28:39.895Z,101122.91
2018-05-07T09:29:46.094Z,101119.46
2018-05-07T09:30:52.354Z,101121.85
2018-05-07T09:31:58.647Z,101126.34
2018-05-07T09:33:04.515Z,101119.62
2018-05-07T09:34:10.790Z,101121.48
2018-05-07T09:35:17.077Z,101123.30
2018-05-07T09:36:23.457Z,101120.41
2018-05-07T09:37:29.691Z,101117.98
2018-05-07T09:38:36.791Z,101116.06
2018-05-07T09:39:43.614Z,101116.34
2018-05-07T09:40:55.496Z,101116.55
2018-05-07T09:42:02.970Z,101114.48
2018-05-07T09:43:09.234Z,101117.61
2018-05-07T09:44:15.721Z,101109.31
2018-05-07T09:45:22.718Z,101106.19
2018-05-07T09:46:29.012Z,101114.61
2018-05-07T09:47:35.209Z,101112.36
2018-05-07T09:48:41.415Z,101112.64
2018-05-07T09:49:47.675Z,101107.64
2018-05-07T09:50:53.982Z,101111.50
2018-05-07T09:52:00.254Z,101110.19
2018-05-07T09:53:06.459Z,101107.36
2018-05-07T09:54:13.683Z,101105.73
2018-05-07T09:55:20.574Z,101106.70
2018-05-07T09:56:27.507Z,101111.72
2018-05-07T09:57:33.464Z,101107.17
2018-05-07T10:00:14.417Z,101107.31
2018-05-07T10:01:20.455Z,101107.95
2018-05-07T10:02:26.474Z,101103.05
2018-05-07T10:03:32.942Z,101099.88
2018-05-07T10:04:40.340Z,101099.82
2018-05-07T10:05:47.085Z,101098.16
2018-05-07T10:06:53.411Z,101103.88
2018-05-07T10:07:59.624Z,101099.19
2018-05-07T10:09:05.134Z,101100.66
2018-05-07T10:10:11.355Z,101091.14
2018-05-07T10:11:17.875Z,101100.25
2018-05-07T10:12:24.171Z,101088.72
2018-05-07T10:13:30.422Z,101089.62
2018-05-07T10:14:36.652Z,101088.40
2018-05-07T10:15:42.997Z,101101.09
2018-05-07T10:16:49.340Z,101093.91
2018-05-07T10:17:55.613Z,101088.28
2018-05-07T10:19:01.820Z,101094.07
2018-05-07T10:20:08.055Z,101092.52
2018-05-07T10:21:15.064Z,101086.10
2018-05-07T10:22:24.484Z,101086.39
2018-05-07T10:23:33.122Z,101084.44
2018-05-07T10:24:39.558Z,101074.00
2018-05-07T10:25:45.855Z,101074.08
2018-05-07T10:26:52.121Z,101077.44
2018-05-07T10:27:58.362Z,101082.81
2018-05-07T10:29:04.207Z,101076.94
2018-05-07T10:30:10.508Z,101081.42
2018-05-07T10:31:16.566Z,101077.28
2018-05-07T10:32:22.876Z,101082.30
2018-05-07T10:33:29.105Z,101080.54
2018-05-07T10:34:35.300Z,101073.12
2018-05-07T10:35:41.543Z,101077.80
2018-05-07T10:36:48.043Z,101075.91
2018-05-07T10:37:54.374Z,101074.80
2018-05-07T10:39:00.642Z,101070.87
2018-05-07T10:40:06.989Z,101067.89
2018-05-07T10:41:13.275Z,101068.69
2018-05-07T10:42:19.599Z,101069.41
2018-05-07T10:43:31.191Z,101067.67
2018-05-07T10:44:43.727Z,101058.91
2018-05-07T10:45:50.025Z,101061.41
2018-05-07T10:46:56.335Z,101064.42
2018-05-07T10:48:02.599Z,101064.73
2018-05-07T10:49:08.954Z,101066.81
2018-05-07T10:50:15.478Z,101061.59
2018-05-07T10:51:22.480Z,101059.99
2018-05-07T10:52:30.587Z,101056.34
2018-05-07T10:53:36.835Z,101054.79
2018-05-07T10:54:43.051Z,101054.92
2018-05-07T10:55:50.082Z,101049.80
2018-05-07T10:56:56.472Z,101049.00
2018-05-07T10:58:02.716Z,101050.22
2018-05-07T10:59:09.011Z,101040.70
2018-05-07T11:00:15.244Z,101038.77
2018-05-07T11:01:21.485Z,101039.58
2018-05-07T11:02:27.734Z,101042.81
2018-05-07T11:03:33.943Z,101036.00
2018-05-07T11:04:40.165Z,101037.18
2018-05-07T11:05:46.727Z,101034.59
2018-05-07T11:06:52.992Z,101039.38
2018-05-07T11:08:00.023Z,101038.52
2018-05-07T11:09:06.711Z,101031.89
2018-05-07T11:10:12.981Z,101036.34
2018-05-07T11:11:19.261Z,101028.86
2018-05-07T11:12:25.559Z,101023.89
2018-05-07T11:13:32.604Z,101022.92
2018-05-07T11:14:39.036Z,101023.16
2018-05-07T11:15:45.355Z,101024.08
2018-05-07T11:16:51.638Z,101022.55
2018-05-07T11:17:57.983Z,101017.90
2018-05-07T11:19:04.251Z,101022.55
2018-05-07T11:20:10.540Z,101018.16
2018-05-07T11:21:16.703Z,101011.98
2018-05-07T11:22:22.765Z,101014.24
2018-05-07T11:23:29.724Z,101018.84
2018-05-07T11:24:38.444Z,101020.05
2018-05-07T11:25:44.647Z,101019.84
2018-05-07T11:26:50.895Z,101017.59
2018-05-07T11:27:57.103Z,101019.94
2018-05-07T11:29:03.336Z,101016.23
2018-05-07T11:30:09.634Z,101012.96
2018-05-07T11:31:15.623Z,101005.82
2018-05-07T11:32:21.625Z,101008.26
2018-05-07T11:33:27.844Z,101007.93
2018-05-07T11:34:34.089Z,101003.91
2018-05-07T11:35:40.411Z,101009.84
2018-05-07T11:36:46.639Z,101010.83
2018-05-07T11:37:52.539Z,101007.59
2018-05-07T11:38:58.934Z,101009.91
2018-05-07T11:40:05.220Z,101002.97
2018-05-07T11:41:11.593Z,101012.77
2018-05-07T11:42:17.864Z,101010.72
2018-05-07T11:43:24.831Z,101011.22
2018-05-07T11:44:31.806Z,101004.52
2018-05-07T11:45:39.109Z,100999.84
2018-05-07T11:46:45.271Z,101003.70
2018-05-07T11:47:51.262Z,100992.41
2018-05-07T11:48:58.735Z,100995.73
2018-05-07T11:50:06.376Z,100993.20
2018-05-07T11:51:13.168Z,100998.61
2018-05-07T11:52:19.456Z,100987.36
2018-05-07T11:53:25.663Z,100991.83
2018-05-07T11:54:31.884Z,100995.88
2018-05-07T11:55:38.121Z,100998.70
2018-05-07T11:56:44.391Z,100987.00
2018-05-07T11:57:50.602Z,100990.60
2018-05-07T11:58:57.629Z,100990.03
2018-05-07T12:00:03.776Z,100989.41
2018-05-07T12:01:10.084Z,100984.81
2018-05-07T12:02:16.424Z,100977.55
2018-05-07T12:03:22.883Z,100982.13
2018-05-07T12:04:29.094Z,100984.16
2018-05-07T12:05:35.982Z,100978.97
2018-05-07T12:06:44.815Z,100974.69
2018-05-07T12:07:50.987Z,100975.41
2018-05-07T12:08:57.247Z,100976.13
2018-05-07T12:10:03.379Z,100971.48
2018-05-07T12:11:09.655Z,100974.58
2018-05-07T12:12:20.982Z,100973.52
2018-05-07T12:13:27.286Z,100966.84
2018-05-07T12:14:34.230Z,100969.16
2018-05-07T12:15:41.837Z,100960.56
2018-05-07T12:16:48.347Z,100963.83
2018-05-07T12:17:54.430Z,100961.39
2018-05-07T12:19:00.694Z,100961.12
2018-05-07T12:20:06.986Z,100954.15
2018-05-07T12:21:13.002Z,100956.38
2018-05-07T12:22:19.293Z,100955.88
2018-05-07T12:23:25.523Z,100961.56
2018-05-07T12:24:31.590Z,100954.30
2018-05-07T12:25:37.887Z,100948.56
2018-05-07T12:26:43.823Z,100946.58
2018-05-07T12:27:50.240Z,100939.30
2018-05-07T12:28:56.483Z,100948.86
2018-05-07T12:30:02.807Z,100952.98
2018-05-07T12:31:09.998Z,100944.92
2018-05-07T12:32:17.651Z,100941.63
2018-05-07T12:33:23.839Z,100945.14
2018-05-07T12:34:30.030Z,100938.70
2018-05-07T12:35:36.263Z,100939.41
2018-05-07T12:36:43.798Z,100937.77
2018-05-07T12:37:50.135Z,100941.55
2018-05-07T12:38:56.396Z,100930.89
2018-05-07T12:40:02.647Z,100936.06
2018-05-07T12:41:08.974Z,100929.55
2018-05-07T12:42:15.247Z,100924.47
2018-05-07T12:43:21.483Z,100932.95